Orbital elements of COSMOS 970 DEB
| Launched | 20 December 1977 |
| Flight ended | – |
| Launch site | Tyuratam Missile and Space Center, Kazakhstan (Also known as Baikonur Cosmodrome) |
| Owner | Commonwealth of Independent States (former USSR) |
| NORAD ID | 10573 |
| Date fetched |
Epoch osculation |
Inc. [°] |
Ecc. | RA asc node [hr] |
Arg Peri. [°] |
Mean anom [°] |
Mean motion [rev/day] |
Abs. mag |
| Date fetched |
Epoch osculation |
Inc. [°] |
Ecc. | RA asc node [hr] |
Arg Peri. [°] |
Mean anom [°] |
Mean motion [rev/day] |
Abs. mag |
| 2026 May 03 17:57 | 2026 Apr 30 12:06:06 | 66.3655 | 0.00819 | 1.9227 | 98.9107 | 84.7035 | 13.52001 | – |
| 2026 May 02 17:57 | 2026 Apr 30 12:06:06 | 66.3655 | 0.00819 | 1.9227 | 98.9107 | 84.7035 | 13.52001 | – |
| 2026 May 01 17:56 | 2026 Apr 30 12:06:06 | 66.3655 | 0.00819 | 1.9227 | 98.9107 | 84.7035 | 13.52001 | – |
| 2026 Apr 30 17:56 | 2026 Apr 30 12:06:06 | 66.3655 | 0.00819 | 1.9227 | 98.9107 | 84.7035 | 13.52001 | – |
| 2026 Apr 29 17:57 | 2026 Apr 24 06:51:05 | 66.3632 | 0.00820 | 2.8870 | 102.8346 | 84.7035 | 13.52001 | – |
| 2026 Apr 28 17:56 | 2026 Apr 24 06:51:05 | 66.3632 | 0.00820 | 2.8870 | 102.8346 | 84.7035 | 13.52001 | – |
| 2026 Apr 27 17:58 | 2026 Apr 24 06:51:05 | 66.3632 | 0.00820 | 2.8870 | 102.8346 | 84.7035 | 13.52001 | – |
| 2026 Apr 26 17:58 | 2026 Apr 24 06:51:05 | 66.3632 | 0.00820 | 2.8870 | 102.8346 | 84.7035 | 13.52001 | – |
| 2026 Apr 25 17:58 | 2026 Apr 24 06:51:05 | 66.3632 | 0.00820 | 2.8870 | 102.8346 | 84.7035 | 13.52001 | – |
| 2026 Apr 24 17:59 | 2026 Apr 24 06:51:05 | 66.3632 | 0.00820 | 2.8870 | 102.8346 | 84.7035 | 13.52001 | – |
| 2026 Apr 23 17:57 | 2026 Apr 19 09:18:45 | 66.3640 | 0.00819 | 3.6465 | 105.9051 | 84.7035 | 13.52001 | – |
| 2026 Apr 22 17:57 | 2026 Apr 19 09:18:45 | 66.3640 | 0.00819 | 3.6465 | 105.9051 | 84.7035 | 13.52001 | – |
| 2026 Apr 21 17:57 | 2026 Apr 19 09:18:45 | 66.3640 | 0.00819 | 3.6465 | 105.9051 | 84.7035 | 13.52001 | – |
| 2026 Apr 20 17:57 | 2026 Apr 19 09:18:45 | 66.3640 | 0.00819 | 3.6465 | 105.9051 | 84.7035 | 13.52001 | – |
| 2026 Apr 19 17:58 | 2026 Apr 19 09:18:45 | 66.3640 | 0.00819 | 3.6465 | 105.9051 | 84.7035 | 13.52001 | – |
| 2026 Apr 18 17:56 | 2026 Apr 13 07:40:25 | 66.3628 | 0.00818 | 4.5876 | 109.7470 | 84.7035 | 13.52001 | – |
| 2026 Apr 16 17:57 | 2026 Apr 13 07:40:25 | 66.3628 | 0.00818 | 4.5876 | 109.7470 | 84.7035 | 13.52001 | – |
| 2026 Apr 14 17:57 | 2026 Apr 13 07:40:25 | 66.3628 | 0.00818 | 4.5876 | 109.7470 | 84.7035 | 13.52001 | – |
| 2026 Apr 13 17:57 | 2026 Apr 13 07:40:25 | 66.3628 | 0.00818 | 4.5876 | 109.7470 | 84.7035 | 13.52001 | – |
| 2026 Apr 12 17:57 | 2026 Apr 08 09:10:02 | 66.3619 | 0.00819 | 5.3535 | 112.8586 | 84.7035 | 13.52001 | – |
| 2026 Apr 11 17:57 | 2026 Apr 08 09:10:02 | 66.3619 | 0.00819 | 5.3535 | 112.8586 | 84.7035 | 13.52001 | – |
| 2026 Apr 10 17:58 | 2026 Apr 08 09:10:02 | 66.3619 | 0.00819 | 5.3535 | 112.8586 | 84.7035 | 13.52001 | – |
| 2026 Apr 09 18:01 | 2026 Apr 08 09:10:02 | 66.3619 | 0.00819 | 5.3535 | 112.8586 | 84.7035 | 13.52001 | – |
| 2026 Apr 08 17:57 | 2026 Apr 08 09:10:02 | 66.3619 | 0.00819 | 5.3535 | 112.8586 | 84.7035 | 13.52001 | – |
| 2026 Apr 07 17:57 | 2026 Apr 02 06:51:40 | 66.3613 | 0.00821 | 6.2989 | 116.7512 | 84.7035 | 13.52001 | – |
| 2026 Apr 06 17:57 | 2026 Apr 02 06:51:40 | 66.3613 | 0.00821 | 6.2989 | 116.7512 | 84.7035 | 13.52001 | – |